createdAt,value
2022-08-19T00:00:00.314Z,101185.75
2022-08-19T00:05:02.700Z,101186.59
2022-08-19T00:10:06.662Z,101188.16
2022-08-19T00:15:14.640Z,101185.25
2022-08-19T00:20:20.726Z,101179.88
2022-08-19T00:25:30.305Z,101182.50
2022-08-19T00:30:32.462Z,101181.31
2022-08-19T00:35:34.518Z,101187.03
2022-08-19T00:40:36.039Z,101176.44
2022-08-19T00:45:37.602Z,101169.56
2022-08-19T00:50:51.467Z,101166.91
2022-08-19T00:55:57.372Z,101158.81
2022-08-19T01:00:58.965Z,101160.84
2022-08-19T01:06:01.072Z,101151.03
2022-08-19T01:11:03.525Z,101150.34
2022-08-19T01:16:09.788Z,101146.75
2022-08-19T01:21:22.815Z,101141.41
2022-08-19T01:26:25.675Z,101143.78
2022-08-19T01:31:33.393Z,101141.72
2022-08-19T01:36:39.103Z,101152.22
2022-08-19T01:41:41.223Z,101155.53
2022-08-19T01:46:44.557Z,101162.78
2022-08-19T01:51:46.989Z,101160.50
2022-08-19T01:56:49.799Z,101153.31
2022-08-19T02:01:52.749Z,101138.66
2022-08-19T02:06:54.366Z,101137.72
2022-08-19T02:11:55.987Z,101128.84
2022-08-19T02:16:57.542Z,101120.41
2022-08-19T02:22:00.560Z,101099.41
2022-08-19T02:27:02.104Z,101101.97
2022-08-19T02:32:05.250Z,101106.06
2022-08-19T02:37:27.132Z,101107.94
2022-08-19T02:42:30.039Z,101110.00
2022-08-19T02:47:31.536Z,101112.66
2022-08-19T02:52:34.238Z,101103.00
2022-08-19T02:57:36.737Z,101109.56
2022-08-19T03:02:38.554Z,101106.19
2022-08-19T03:07:40.213Z,101084.50
2022-08-19T03:12:41.803Z,101100.00
2022-08-19T03:17:43.411Z,101098.50
2022-08-19T03:22:44.937Z,101093.72
2022-08-19T03:27:49.912Z,101097.03
2022-08-19T03:32:53.535Z,101103.53
2022-08-19T03:38:01.644Z,101113.31
2022-08-19T03:43:03.572Z,101098.91
2022-08-19T03:48:05.329Z,101105.06
2022-08-19T03:53:07.371Z,101112.47
2022-08-19T03:58:09.113Z,101110.69
2022-08-19T04:03:10.717Z,101117.00
2022-08-19T04:08:14.014Z,101128.59
2022-08-19T04:13:18.036Z,101128.50
2022-08-19T04:18:19.728Z,101136.38
2022-08-19T04:23:21.255Z,101151.44
2022-08-19T04:28:24.158Z,101154.19
2022-08-19T04:33:28.461Z,101165.50
2022-08-19T04:38:30.332Z,101159.97
2022-08-19T04:43:32.602Z,101168.75
2022-08-19T04:48:35.641Z,101169.38
2022-08-19T04:53:44.243Z,101184.47
2022-08-19T04:58:46.314Z,101183.72
2022-08-19T05:03:48.397Z,101190.59
2022-08-19T05:08:51.361Z,101196.72
2022-08-19T05:13:53.477Z,101194.09
2022-08-19T05:19:14.790Z,101197.63
2022-08-19T05:24:17.329Z,101209.75
2022-08-19T05:29:21.204Z,101203.41
2022-08-19T05:34:26.933Z,101203.16
2022-08-19T05:39:31.178Z,101192.66
2022-08-19T05:44:35.018Z,101199.16
2022-08-19T05:49:37.899Z,101196.69
2022-08-19T05:54:42.579Z,101190.97
2022-08-19T05:59:46.783Z,101195.16
2022-08-19T06:04:48.422Z,101195.91
2022-08-19T06:09:59.015Z,101194.75
2022-08-19T06:15:09.572Z,101199.94
2022-08-19T06:20:14.368Z,101189.66
2022-08-19T06:25:17.889Z,101197.38
2022-08-19T06:30:19.635Z,101200.88
2022-08-19T06:35:21.330Z,101147.84
2022-08-19T06:40:23.361Z,101203.09
2022-08-19T06:45:34.830Z,101192.59
2022-08-19T06:50:39.779Z,101198.41
2022-08-19T06:55:42.723Z,101198.03
2022-08-19T07:00:44.649Z,101203.06
2022-08-19T07:05:46.320Z,101204.13
2022-08-19T07:10:48.882Z,101204.97
2022-08-19T07:15:51.304Z,101206.16
2022-08-19T07:21:06.694Z,101208.75
2022-08-19T07:26:21.427Z,101228.81
2022-08-19T07:31:31.164Z,101233.72
2022-08-19T07:36:36.589Z,101214.59
2022-08-19T07:41:38.345Z,101242.25
2022-08-19T07:46:42.587Z,101239.94
2022-08-19T07:51:45.939Z,101246.94
2022-08-19T07:56:47.606Z,101256.31
2022-08-19T08:01:51.144Z,101255.00
2022-08-19T08:07:12.948Z,101253.78
2022-08-19T08:12:33.016Z,101262.50
2022-08-19T08:17:51.390Z,101252.50
2022-08-19T08:23:11.905Z,101251.47
2022-08-19T08:28:17.500Z,101261.94
2022-08-19T08:33:33.831Z,101249.38
2022-08-19T08:38:41.821Z,101261.69
2022-08-19T08:43:47.338Z,101264.31
2022-08-19T08:49:05.188Z,101263.16
2022-08-19T08:54:11.288Z,101275.22
2022-08-19T08:59:21.016Z,101275.88
2022-08-19T09:04:23.846Z,101278.84
2022-08-19T09:09:36.564Z,101281.97
2022-08-19T09:14:51.784Z,101279.13
2022-08-19T09:20:05.949Z,101283.69
2022-08-19T09:25:14.976Z,101279.88
2022-08-19T09:30:22.662Z,101284.25
2022-08-19T09:35:28.303Z,101277.41
2022-08-19T09:40:32.635Z,101275.22
2022-08-19T09:45:39.797Z,101296.59
2022-08-19T09:50:51.511Z,101292.84
2022-08-19T09:55:56.264Z,101307.94
2022-08-19T10:00:59.479Z,101293.13
2022-08-19T10:06:03.806Z,101294.28
2022-08-19T10:11:28.162Z,101292.84
2022-08-19T10:16:30.094Z,101294.06
2022-08-19T10:21:35.168Z,101293.44
2022-08-19T10:26:42.954Z,101294.47
2022-08-19T10:31:59.856Z,101289.50
2022-08-19T10:37:10.697Z,101286.25
2022-08-19T10:42:14.039Z,101277.97
2022-08-19T10:47:21.897Z,101281.63
2022-08-19T10:52:39.044Z,101265.69
2022-08-19T10:58:01.172Z,101280.13
2022-08-19T11:03:03.773Z,101276.41
2022-08-19T11:08:23.538Z,101267.03
2022-08-19T11:13:26.141Z,101265.13
2022-08-19T11:18:27.704Z,101273.22
2022-08-19T11:23:29.347Z,101274.19
2022-08-19T11:28:31.243Z,101267.97
2022-08-19T11:33:33.640Z,101266.22
2022-08-19T11:38:36.668Z,101249.22
2022-08-19T11:43:38.675Z,101256.22
2022-08-19T11:48:40.831Z,101260.63
2022-08-19T11:53:42.571Z,101253.66
2022-08-19T11:58:44.746Z,101254.75
2022-08-19T12:03:48.071Z,101255.84
2022-08-19T12:08:49.758Z,101261.13
2022-08-19T12:13:51.387Z,101266.97
2022-08-19T12:18:52.990Z,101273.19
2022-08-19T12:23:56.053Z,101267.91
2022-08-19T12:28:59.865Z,101262.22
2022-08-19T12:34:02.425Z,101259.75
2022-08-19T12:39:05.270Z,101268.56
2022-08-19T12:44:07.431Z,101262.66
2022-08-19T12:49:24.535Z,101263.84
2022-08-19T12:54:33.266Z,101258.03
2022-08-19T12:59:37.276Z,101258.66
2022-08-19T13:04:41.617Z,101254.63
2022-08-19T13:09:43.515Z,101252.59
2022-08-19T13:14:50.845Z,101263.56
2022-08-19T13:19:59.840Z,101250.84
2022-08-19T13:25:01.518Z,101250.00
2022-08-19T13:30:23.392Z,101254.25
2022-08-19T13:35:24.964Z,101259.53
2022-08-19T13:40:27.906Z,101248.44
2022-08-19T13:45:30.798Z,101254.75
2022-08-19T13:50:33.083Z,101253.88
2022-08-19T13:55:35.649Z,101250.69
2022-08-19T14:00:41.694Z,101236.50
2022-08-19T14:05:43.665Z,101239.00
2022-08-19T14:10:46.279Z,101231.63
2022-08-19T14:15:48.450Z,101231.81
2022-08-19T14:20:50.154Z,101228.47
2022-08-19T14:25:52.501Z,101229.56
2022-08-19T14:30:55.221Z,101229.38
2022-08-19T14:35:59.629Z,101230.53
2022-08-19T14:41:18.219Z,101229.16
2022-08-19T14:46:22.875Z,101217.75
2022-08-19T14:51:25.960Z,101224.09
2022-08-19T14:56:29.840Z,101225.97
2022-08-19T15:01:31.782Z,101226.88
2022-08-19T15:06:33.959Z,101222.03
2022-08-19T15:11:36.199Z,101222.00
2022-08-19T15:16:42.649Z,101230.88
2022-08-19T15:21:44.566Z,101226.16
2022-08-19T15:26:46.218Z,101228.41
2022-08-19T15:31:47.833Z,101223.38
2022-08-19T15:36:51.640Z,101222.53
2022-08-19T15:41:53.287Z,101224.81
2022-08-19T15:46:54.824Z,101230.88
2022-08-19T15:51:57.991Z,101232.75
2022-08-19T15:57:18.779Z,101231.44
2022-08-19T16:02:41.500Z,101233.94
2022-08-19T16:07:43.221Z,101234.94
2022-08-19T16:12:44.804Z,101229.97
2022-08-19T16:17:48.771Z,101234.59
2022-08-19T16:22:59.378Z,101238.19
2022-08-19T16:28:06.230Z,101237.34
2022-08-19T16:33:10.132Z,101232.16
2022-08-19T16:38:11.635Z,101230.97
2022-08-19T16:43:13.236Z,101225.44
2022-08-19T16:48:14.870Z,101233.81
2022-08-19T16:53:19.471Z,101239.81
2022-08-19T16:58:28.387Z,101233.00
2022-08-19T17:03:36.601Z,101225.94
2022-08-19T17:08:38.779Z,101228.09
2022-08-19T17:13:40.415Z,101230.31
2022-08-19T17:18:45.372Z,101229.38
2022-08-19T17:23:46.941Z,101225.19
2022-08-19T17:28:51.529Z,101231.22
2022-08-19T17:33:53.122Z,101227.66
2022-08-19T17:38:58.035Z,101234.75
2022-08-19T17:43:59.841Z,101230.31
2022-08-19T17:49:01.678Z,101228.16
2022-08-19T17:54:05.354Z,101223.06
2022-08-19T17:59:07.887Z,101214.69
2022-08-19T18:04:16.896Z,101220.47
2022-08-19T18:09:18.458Z,101221.22
2022-08-19T18:14:32.857Z,101223.72
2022-08-19T18:19:42.287Z,101226.47
2022-08-19T18:24:45.832Z,101232.28
2022-08-19T18:29:48.065Z,101241.56
2022-08-19T18:34:49.847Z,101235.63
2022-08-19T18:40:10.208Z,101237.00
2022-08-19T18:45:30.899Z,101234.56
2022-08-19T18:50:32.809Z,101240.94
2022-08-19T18:55:34.620Z,101240.28
2022-08-19T19:00:36.820Z,101248.91
2022-08-19T19:05:39.882Z,101248.63
2022-08-19T19:10:42.206Z,101247.28
2022-08-19T19:15:43.931Z,101246.97
2022-08-19T19:20:45.477Z,101250.63
2022-08-19T19:25:50.590Z,101246.63
2022-08-19T19:30:54.515Z,101246.41
2022-08-19T19:35:56.301Z,101254.22
2022-08-19T19:40:57.880Z,101256.84
2022-08-19T19:45:59.406Z,101256.25
2022-08-19T19:51:02.458Z,101260.53
2022-08-19T19:56:12.949Z,101255.78
2022-08-19T20:01:21.074Z,101248.84
2022-08-19T20:06:24.558Z,101238.94
2022-08-19T20:11:34.644Z,101246.34
2022-08-19T20:16:38.144Z,101241.59
2022-08-19T20:21:43.672Z,101243.19
2022-08-19T20:26:47.514Z,101242.75
2022-08-19T20:31:58.026Z,101241.38
2022-08-19T20:37:02.043Z,101250.56
2022-08-19T20:42:05.648Z,101251.59
2022-08-19T20:47:07.321Z,101259.00
2022-08-19T20:52:08.979Z,101262.97
2022-08-19T20:57:10.561Z,101270.31
2022-08-19T21:02:12.187Z,101267.72
2022-08-19T21:07:15.126Z,101284.13
2022-08-19T21:12:17.711Z,101279.38
2022-08-19T21:17:19.307Z,101289.38
2022-08-19T21:22:20.865Z,101301.13
2022-08-19T21:27:22.410Z,101305.47
2022-08-19T21:32:24.180Z,101299.56
2022-08-19T21:37:26.354Z,101297.88
2022-08-19T21:42:27.964Z,101300.66
2022-08-19T21:47:29.589Z,101304.28
2022-08-19T21:52:31.635Z,101304.69
2022-08-19T21:57:33.200Z,101307.72
2022-08-19T22:02:34.799Z,101298.28
2022-08-19T22:07:37.004Z,101310.88
2022-08-19T22:12:47.309Z,101314.53
2022-08-19T22:17:54.411Z,101309.44
2022-08-19T22:22:59.539Z,101312.31
2022-08-19T22:28:02.869Z,101299.19
2022-08-19T22:33:07.440Z,101309.66
2022-08-19T22:38:10.817Z,101295.75
2022-08-19T22:43:16.584Z,101289.78
2022-08-19T22:48:20.773Z,101300.34
2022-08-19T22:53:22.199Z,101303.00
2022-08-19T22:58:27.828Z,101296.91
2022-08-19T23:03:30.015Z,101293.34
2022-08-19T23:08:31.559Z,101300.28
2022-08-19T23:13:33.420Z,101286.00
2022-08-19T23:18:35.264Z,101289.97
2022-08-19T23:23:37.923Z,101293.88
2022-08-19T23:28:59.629Z,101289.47
2022-08-19T23:34:02.016Z,101284.19
2022-08-19T23:39:03.750Z,101301.88
2022-08-19T23:44:06.222Z,101295.81
2022-08-19T23:49:16.352Z,101289.28
2022-08-19T23:54:17.975Z,101255.50
2022-08-19T23:59:19.786Z,101270.50
